Time;durP1;ratioP1;P1;durP2;ratioP2;P2;SDS_P1;SDS_P2;PMS_P1;PMS_P2;Temp;Humidity;BMP_temperature;BMP_pressure;BME280_temperature;BME280_humidity;BME280_pressure;Samples;Min_cycle;Max_cycle;Signal;HPM_P1;HPM_P2
2022/06/07 06:30:44;;;;;;;;;4.33;3.00;;;;;21.48;55.96;101188.63;5108928;27;45826;-78
2022/06/07 06:33:12;;;;;;;;;3.33;2.33;;;;;21.59;55.16;101188.44;5093183;27;45539;-76
2022/06/07 06:35:38;;;;;;;;;3.00;3.00;;;;;21.82;55.07;101200.78;5106409;27;45746;-79
2022/06/07 06:38:03;;;;;;;;;2.33;2.33;;;;;22.07;55.33;101206.59;5096308;27;45457;-81
2022/06/07 06:40:29;;;;;;;;;5.33;4.33;;;;;22.34;54.72;101205.75;5105488;27;45405;-79
2022/06/07 06:42:54;;;;;;;;;1.33;1.33;;;;;22.61;54.70;101206.78;5107206;27;45456;-79
2022/06/07 06:45:19;;;;;;;;;2.00;2.00;;;;;22.90;54.17;101213.84;5105218;27;54090;-78
2022/06/07 06:47:45;;;;;;;;;3.00;3.00;;;;;23.19;53.74;101197.56;5109612;27;53513;-80
2022/06/07 06:50:11;;;;;;;;;3.00;2.00;;;;;23.45;53.44;101208.47;5102242;27;46923;-78
2022/06/07 06:52:37;;;;;;;;;3.00;3.00;;;;;23.70;53.27;101203.22;5106938;27;45670;-78
2022/06/07 06:55:03;;;;;;;;;3.67;2.00;;;;;23.92;52.73;101203.72;5096119;27;45343;-77
2022/06/07 06:57:28;;;;;;;;;2.33;2.33;;;;;24.17;52.31;101203.88;5100715;27;45476;-79
2022/06/07 06:59:53;;;;;;;;;4.00;2.00;;;;;24.42;51.61;101204.00;5099093;27;48925;-76
2022/06/07 07:02:19;;;;;;;;;2.00;2.00;;;;;24.64;51.47;101213.41;5099678;27;46557;-77
2022/06/07 07:04:45;;;;;;;;;1.33;1.33;;;;;24.85;51.19;101212.16;5104760;27;45590;-77
2022/06/07 07:07:10;;;;;;;;;3.00;2.00;;;;;25.04;50.83;101219.13;5102717;27;45401;-76
2022/06/07 07:09:36;;;;;;;;;2.00;2.00;;;;;25.22;50.67;101216.25;5102588;27;46400;-76
2022/06/07 07:12:01;;;;;;;;;3.00;2.00;;;;;25.37;50.57;101215.59;5104601;27;46047;-77
2022/06/07 07:14:28;;;;;;;;;2.00;2.00;;;;;25.52;50.19;101218.47;5106150;27;45425;-76
2022/06/07 07:16:53;;;;;;;;;1.00;1.00;;;;;25.65;50.03;101213.41;5104353;27;45472;-76
2022/06/07 07:19:20;;;;;;;;;3.00;1.67;;;;;25.80;49.53;101220.88;5100822;27;45486;-78
2022/06/07 07:21:48;;;;;;;;;3.00;3.00;;;;;25.89;49.42;101222.56;5103450;27;45366;-75
2022/06/07 07:24:17;;;;;;;;;2.00;2.00;;;;;26.01;49.34;101211.31;5103925;27;45372;-76
2022/06/07 07:26:44;;;;;;;;;3.00;1.67;;;;;26.11;49.69;101217.38;5096667;27;45425;-75
2022/06/07 07:29:11;;;;;;;;;2.00;2.00;;;;;26.18;49.54;101209.38;5099371;27;46764;-76
2022/06/07 07:31:37;;;;;;;;;2.67;2.00;;;;;26.26;49.74;101213.97;5100461;27;45609;-76
2022/06/07 07:34:07;;;;;;;;;1.67;1.00;;;;;26.33;49.40;101225.88;5103154;27;45515;-76
2022/06/07 07:36:33;;;;;;;;;1.67;1.67;;;;;26.40;49.78;101215.94;5103393;27;45480;-76
2022/06/07 07:38:59;;;;;;;;;2.33;2.33;;;;;26.48;49.74;101227.84;5095318;27;45481;-79
2022/06/07 07:41:30;;;;;;;;;1.00;1.00;;;;;26.51;49.74;101219.31;5093534;27;45404;-79
2022/06/07 07:43:59;;;;;;;;;1.33;1.33;;;;;26.55;49.18;101221.50;5088593;27;45761;-78
2022/06/07 07:46:28;;;;;;;;;2.00;2.00;;;;;26.60;49.87;101220.97;5090794;27;45476;-79
2022/06/07 07:48:53;;;;;;;;;1.00;1.00;;;;;26.65;49.49;101215.00;5081037;27;46168;-79
2022/06/07 07:51:30;;;;;;;;;2.00;2.00;;;;;26.72;49.01;101220.59;5082830;27;45442;-76
2022/06/07 07:53:57;;;;;;;;;2.00;2.00;;;;;26.75;49.58;101217.47;5084765;27;46742;-77
2022/06/07 07:56:23;;;;;;;;;1.33;1.33;;;;;26.79;48.97;101216.97;5079852;27;46047;-78
2022/06/07 07:58:50;;;;;;;;;2.00;1.33;;;;;26.83;49.39;101215.56;5089461;27;46230;-79
2022/06/07 08:01:18;;;;;;;;;1.00;1.00;;;;;26.87;49.38;101210.63;5090940;27;45515;-76
2022/06/07 08:03:44;;;;;;;;;1.00;1.00;;;;;26.90;49.41;101218.44;5078559;27;45816;-78
2022/06/07 08:06:12;;;;;;;;;3.00;3.00;;;;;26.95;49.35;101220.63;5080971;27;45264;-81
2022/06/07 08:08:39;;;;;;;;;1.67;1.67;;;;;27.00;49.54;101223.66;5079892;27;45798;-79
2022/06/07 08:11:05;;;;;;;;;1.33;1.33;;;;;27.02;49.37;101224.31;5089752;27;45447;-75
2022/06/07 08:13:32;;;;;;;;;1.00;1.00;;;;;27.04;48.58;101218.69;5087847;27;45484;-78
2022/06/07 08:15:58;;;;;;;;;1.33;1.33;;;;;27.09;48.66;101219.00;5092552;27;45568;-78
2022/06/07 08:18:24;;;;;;;;;1.00;1.00;;;;;27.12;48.63;101221.38;5086828;27;46262;-78
2022/06/07 08:20:50;;;;;;;;;3.00;2.00;;;;;27.14;49.14;101216.56;5080845;27;45552;-78
2022/06/07 08:23:17;;;;;;;;;2.00;1.00;;;;;27.17;48.73;101218.94;5088051;27;45631;-79
2022/06/07 08:25:43;;;;;;;;;2.00;1.00;;;;;27.20;48.61;101215.88;5083441;27;45751;-82
2022/06/07 08:28:08;;;;;;;;;4.67;1.00;;;;;27.22;48.40;101215.69;5087209;27;45679;-80
2022/06/07 08:30:37;;;;;;;;;0.67;0.67;;;;;27.25;48.93;101225.38;5080811;27;45509;-76
2022/06/07 08:37:32;;;;;;;;;1.00;1.00;;;;;27.26;48.78;101219.72;5078762;27;45765;-78
2022/06/07 08:38:32;;;;;;;;;2.00;2.00;;;;;27.27;48.85;101216.00;5087013;27;46158;-79
2022/06/07 08:40:57;;;;;;;;;1.00;1.00;;;;;27.30;47.93;101226.50;5087454;27;45426;-76
2022/06/07 08:43:25;;;;;;;;;1.00;1.00;;;;;27.32;48.04;101219.00;5084469;27;45303;-79
2022/06/07 08:45:53;;;;;;;;;1.00;1.00;;;;;27.35;47.86;101225.97;5092228;27;45382;-78
2022/06/07 08:48:26;;;;;;;;;3.00;1.67;;;;;27.38;48.42;101219.31;5087710;27;45454;-76
2022/06/07 08:51:13;;;;;;;;;2.00;2.00;;;;;27.40;47.65;101223.53;5081559;27;45585;-76
2022/06/07 08:53:45;;;;;;;;;2.00;2.00;;;;;27.42;47.67;101226.09;5082798;27;45493;-75
2022/06/07 08:56:16;;;;;;;;;1.00;1.00;;;;;27.42;47.60;101224.19;5079987;27;45486;-77
2022/06/07 08:58:47;;;;;;;;;1.33;1.33;;;;;27.46;47.55;101227.41;5088087;27;47193;-76
2022/06/07 09:01:33;;;;;;;;;1.00;1.00;;;;;27.47;47.72;101220.94;5086754;27;45720;-76
2022/06/07 09:04:15;;;;;;;;;1.00;1.00;;;;;27.52;48.22;101218.50;5086452;27;45444;-75
2022/06/07 09:06:47;;;;;;;;;2.33;2.33;;;;;27.54;48.06;101218.31;5079535;27;45540;-75
2022/06/07 09:09:15;;;;;;;;;2.00;1.33;;;;;27.53;47.42;101209.28;5086952;27;46452;-76
2022/06/07 09:14:43;;;;;;;;;1.00;1.00;;;;;27.54;47.60;101216.41;5081474;27;45167;-77
2022/06/07 09:17:17;;;;;;;;;1.00;1.00;;;;;27.55;48.03;101214.56;5079554;27;45580;-76
2022/06/07 09:19:44;;;;;;;;;1.00;1.00;;;;;27.56;48.07;101214.38;5086266;27;46247;-77
2022/06/07 09:22:19;;;;;;;;;1.00;1.00;;;;;27.59;46.78;101218.59;5089942;27;45756;-84
2022/06/07 09:24:51;;;;;;;;;2.00;2.00;;;;;27.72;44.91;101213.38;5088376;27;45762;-86
2022/06/07 09:27:21;;;;;;;;;2.00;2.00;;;;;27.77;44.03;101201.94;5092933;27;45430;-88
2022/06/07 09:30:19;;;;;;;;;2.00;2.00;;;;;27.83;43.02;101208.53;5086471;27;46194;-89
2022/06/07 09:32:49;;;;;;;;;2.33;2.33;;;;;27.84;43.57;101197.41;5084122;27;45444;-89
2022/06/07 09:35:20;;;;;;;;;2.33;2.33;;;;;27.93;43.46;101208.22;5090281;27;45656;-89
2022/06/07 09:38:04;;;;;;;;;2.00;2.00;;;;;27.96;42.74;101200.50;5091223;27;45395;-89
2022/06/07 09:40:35;;;;;;;;;2.33;2.33;;;;;27.98;42.93;101198.47;5087780;27;46304;-89
2022/06/07 09:43:15;;;;;;;;;1.33;1.33;;;;;28.04;42.76;101204.19;5091516;27;45525;-89
2022/06/07 09:45:43;;;;;;;;;2.00;2.00;;;;;28.05;42.99;101204.03;5088754;27;45399;-89
2022/06/07 09:48:26;;;;;;;;;2.00;2.00;;;;;28.05;42.90;101200.44;5089787;27;45455;-89
2022/06/07 09:50:58;;;;;;;;;2.33;2.33;;;;;28.06;42.23;101197.53;5084880;27;46488;-89
2022/06/07 09:53:25;;;;;;;;;2.00;2.00;;;;;28.09;42.41;101196.28;5089447;27;45463;-89
2022/06/07 09:56:05;;;;;;;;;1.00;1.00;;;;;28.10;42.53;101187.94;5084170;27;45403;-88
2022/06/07 09:58:41;;;;;;;;;4.33;2.00;;;;;28.13;42.29;101192.16;5086988;27;45404;-88
2022/06/07 10:01:18;;;;;;;;;1.00;1.00;;;;;28.06;41.58;101192.06;5082416;27;46136;-87
2022/06/07 10:04:16;;;;;;;;;1.00;1.00;;;;;28.02;41.82;101188.00;5088218;27;45661;-88
2022/06/07 10:06:49;;;;;;;;;2.00;2.00;;;;;28.05;42.15;101192.25;5081900;27;45421;-88
2022/06/07 10:09:15;;;;;;;;;2.00;2.00;;;;;28.04;42.03;101188.69;5087591;27;49414;-88
2022/06/07 10:12:05;;;;;;;;;1.00;1.00;;;;;28.04;41.98;101193.28;5087780;27;45438;-88
2022/06/07 10:14:45;;;;;;;;;1.67;1.67;;;;;28.04;42.09;101187.84;5081204;27;45492;-88
2022/06/07 10:17:52;;;;;;;;;1.00;1.00;;;;;28.04;41.75;101185.97;5083941;27;45425;-88
2022/06/07 10:20:22;;;;;;;;;2.00;2.00;;;;;28.05;41.81;101195.84;5082430;27;45655;-88
2022/06/07 10:23:19;;;;;;;;;1.00;1.00;;;;;28.06;41.63;101196.66;5081712;27;47206;-87
2022/06/07 10:26:22;;;;;;;;;1.33;1.33;;;;;27.99;41.10;101193.84;5090976;27;45485;-88
2022/06/07 10:29:13;;;;;;;;;1.00;1.00;;;;;27.94;40.71;101188.09;5084616;27;45605;-87
2022/06/07 10:31:56;;;;;;;;;3.00;1.00;;;;;27.95;40.47;101185.19;5087788;27;45270;-88
2022/06/07 10:34:40;;;;;;;;;2.00;2.00;;;;;27.94;41.44;101199.00;5089656;27;47032;-91
2022/06/07 10:37:21;;;;;;;;;1.67;1.67;;;;;27.95;41.37;101187.91;5086913;27;45419;-88
2022/06/07 10:39:46;;;;;;;;;1.33;1.33;;;;;27.95;41.29;101193.38;5083602;27;45444;-87
2022/06/07 10:42:30;;;;;;;;;2.33;2.00;;;;;27.99;41.46;101191.09;5087210;27;45490;-87
2022/06/07 10:44:56;;;;;;;;;2.00;2.00;;;;;28.01;40.88;101189.06;5083325;27;46419;-87
2022/06/07 10:47:33;;;;;;;;;2.00;1.33;;;;;28.00;41.28;101188.19;5079001;27;45513;-87
2022/06/07 10:50:24;;;;;;;;;1.00;1.00;;;;;27.98;41.19;101186.69;5081220;27;45997;-87
2022/06/07 10:53:08;;;;;;;;;2.00;2.00;;;;;28.03;40.66;101186.97;5076664;27;45276;-87
2022/06/07 10:55:38;;;;;;;;;2.00;2.00;;;;;28.05;40.50;101186.78;5087129;27;45434;-89
2022/06/07 10:58:40;;;;;;;;;2.00;2.00;;;;;28.05;40.61;101189.53;5087307;27;45520;-87
2022/06/07 11:01:19;;;;;;;;;1.00;1.00;;;;;28.07;40.57;101187.47;5042403;28;45541;-88
2022/06/07 11:04:05;;;;;;;;;4.00;1.00;;;;;28.08;40.44;101181.78;5049717;28;45587;-89
2022/06/07 11:09:49;;;;;;;;;1.33;1.33;;;;;28.12;40.53;101194.03;5047084;28;45483;-87
2022/06/07 11:12:22;;;;;;;;;1.00;1.00;;;;;28.12;40.64;101193.19;5049453;28;45457;-87
2022/06/07 11:15:34;;;;;;;;;1.00;1.00;;;;;28.13;40.96;101189.44;5031593;28;45758;-87
2022/06/07 11:18:18;;;;;;;;;1.00;1.00;;;;;28.12;40.97;101190.47;4990479;28;45926;-86
2022/06/07 11:21:09;;;;;;;;;0.33;0.33;;;;;28.10;40.02;101192.53;4987984;28;45484;-83
2022/06/07 11:23:46;;;;;;;;;2.00;2.00;;;;;28.05;40.34;101184.06;4989155;28;45425;-83
2022/06/07 11:26:17;;;;;;;;;2.33;1.00;;;;;27.95;40.59;101181.63;4983521;28;45485;-84
2022/06/07 11:28:47;;;;;;;;;3.33;2.00;;;;;27.97;39.92;101193.19;4987506;28;45441;-83
2022/06/07 11:31:35;;;;;;;;;1.00;1.00;;;;;27.97;40.41;101188.59;4993697;28;45798;-84
2022/06/07 11:34:21;;;;;;;;;2.00;1.00;;;;;28.00;39.94;101190.94;4991087;28;45351;-82
2022/06/07 11:36:47;;;;;;;;;3.00;3.00;;;;;28.00;39.87;101190.94;5024975;28;45670;-81
2022/06/07 11:39:51;;;;;;;;;2.00;2.00;;;;;27.99;40.14;101191.97;5027191;28;46142;-79
2022/06/07 11:42:36;;;;;;;;;2.00;1.00;;;;;28.01;40.14;101187.19;5028650;28;45686;-80
2022/06/07 11:45:02;;;;;;;;;1.00;1.00;;;;;28.01;40.06;101187.19;5033181;28;45555;-80
2022/06/07 11:48:09;;;;;;;;;0.33;0.33;;;;;28.00;40.05;101184.63;5031451;28;45631;-80
2022/06/07 11:50:46;;;;;;;;;2.00;2.00;;;;;28.01;39.98;101183.59;5027895;28;46320;-77
2022/06/07 11:53:28;;;;;;;;;1.00;1.00;;;;;27.98;39.93;101179.38;5042467;27;45383;-79
2022/06/07 11:56:27;;;;;;;;;0.33;0.33;;;;;27.97;39.37;101185.00;5088608;27;45513;-79
2022/06/07 11:59:00;;;;;;;;;0.00;0.00;;;;;27.95;39.83;101171.56;5089278;27;45490;-79
2022/06/07 12:01:39;;;;;;;;;1.00;1.00;;;;;27.98;39.65;101182.09;5088908;27;47243;-79
2022/06/07 12:04:29;;;;;;;;;2.00;1.00;;;;;28.01;39.96;101170.81;5091044;27;45328;-79
2022/06/07 12:07:06;;;;;;;;;1.00;1.00;;;;;28.02;39.28;101171.66;5082141;27;45600;-77
2022/06/07 12:09:34;;;;;;;;;0.67;0.67;;;;;28.07;39.78;101160.19;5087681;27;45571;-77
2022/06/07 12:12:16;;;;;;;;;0.33;0.33;;;;;28.04;39.23;101166.88;5090521;27;46547;-79
2022/06/07 12:14:42;;;;;;;;;0.67;0.67;;;;;28.05;39.28;101157.63;5086740;27;45481;-79
2022/06/07 12:17:24;;;;;;;;;0.67;0.67;;;;;28.08;38.98;101162.69;5088759;27;45350;-77
2022/06/07 12:19:50;;;;;;;;;1.00;1.00;;;;;28.08;39.45;101150.94;5087911;27;45471;-77
2022/06/07 12:22:19;;;;;;;;;1.67;1.67;;;;;28.10;39.44;101152.47;5082122;27;45406;-77
2022/06/07 12:24:52;;;;;;;;;1.00;1.00;;;;;28.12;39.26;101150.38;5088049;27;45510;-79
2022/06/07 12:27:35;;;;;;;;;0.67;0.67;;;;;28.15;40.11;101151.88;5087793;27;45542;-88
2022/06/07 12:30:18;;;;;;;;;0.00;0.00;;;;;28.12;39.18;101147.63;5086541;27;45635;-86
2022/06/07 12:32:44;;;;;;;;;1.33;1.33;;;;;28.13;39.42;101149.31;5085712;27;46291;-88
2022/06/07 12:35:28;;;;;;;;;2.67;1.00;;;;;28.16;39.28;101142.66;5088465;27;45390;-87
2022/06/07 12:37:57;;;;;;;;;0.67;0.67;;;;;28.15;39.85;101149.16;5088302;27;45449;-87
2022/06/07 12:40:33;;;;;;;;;0.00;0.00;;;;;28.11;39.65;101134.19;5088706;27;45588;-87
2022/06/07 12:43:00;;;;;;;;;0.33;0.33;;;;;28.10;40.03;101144.28;5090464;27;45676;-87
2022/06/07 12:45:34;;;;;;;;;0.00;0.00;;;;;28.08;39.59;101142.78;5123547;27;45812;-87
2022/06/07 12:48:12;;;;;;;;;0.67;0.00;;;;;28.00;39.84;101141.81;5087294;27;47095;-87
2022/06/07 12:50:40;;;;;;;;;0.00;0.00;;;;;28.01;40.13;101134.50;5092716;27;45444;-87
2022/06/07 12:53:07;;;;;;;;;0.33;0.33;;;;;28.01;39.18;101137.22;5093335;27;47380;-86
2022/06/07 12:55:36;;;;;;;;;0.00;0.00;;;;;27.99;39.59;101128.38;5085648;27;45575;-87
2022/06/07 12:58:06;;;;;;;;;0.00;0.00;;;;;27.99;39.17;101131.94;5098542;27;45422;-87
2022/06/07 13:00:47;;;;;;;;;1.00;1.00;;;;;28.01;39.76;101127.16;5100137;27;45496;-87
2022/06/07 13:03:25;;;;;;;;;1.00;1.00;;;;;28.07;39.57;101128.28;5084717;27;45543;-86
2022/06/07 13:05:57;;;;;;;;;2.00;1.00;;;;;28.10;39.12;101132.50;5088665;27;45797;-87
2022/06/07 13:08:26;;;;;;;;;1.00;1.00;;;;;28.12;38.55;101135.91;5079433;27;45328;-86
2022/06/07 13:10:52;;;;;;;;;0.00;0.00;;;;;28.11;38.92;101120.53;5082390;27;45564;-90
2022/06/07 13:13:32;;;;;;;;;0.00;0.00;;;;;27.89;38.88;101125.94;5099020;27;46942;-80
2022/06/07 13:16:09;;;;;;;;;1.00;1.00;;;;;27.32;39.80;101123.63;5091016;27;45450;-79
2022/06/07 13:18:38;;;;;;;;;1.67;1.00;;;;;26.81;40.22;101132.38;5122800;27;45448;-77
2022/06/07 13:21:37;;;;;;;;;1.00;1.00;;;;;26.46;41.52;101138.19;5081835;27;45545;-79
2022/06/07 13:24:04;;;;;;;;;3.00;1.00;;;;;26.24;42.03;101139.81;5077886;27;47331;-78
2022/06/07 13:26:40;;;;;;;;;1.00;1.00;;;;;26.09;42.08;101146.00;5094083;27;45629;-76
2022/06/07 13:29:22;;;;;;;;;1.00;1.00;;;;;25.95;42.40;101141.31;5089940;27;45472;-77
2022/06/07 13:31:48;;;;;;;;;1.33;0.00;;;;;25.84;43.14;101150.69;5080874;27;45552;-77
2022/06/07 13:34:21;;;;;;;;;1.33;1.33;;;;;25.77;42.97;101153.25;5085313;27;45677;-77
2022/06/07 13:37:09;;;;;;;;;1.00;1.00;;;;;25.67;43.30;101139.00;5093041;27;45351;-78
2022/06/07 13:39:58;;;;;;;;;2.33;1.00;;;;;25.59;43.26;101135.25;5089871;27;45303;-75
2022/06/07 13:42:27;;;;;;;;;1.67;1.67;;;;;25.50;43.90;101141.72;5084799;27;45638;-76
2022/06/07 13:44:58;;;;;;;;;1.00;1.00;;;;;25.38;43.74;101135.81;5084799;27;45727;-76
2022/06/07 13:47:35;;;;;;;;;1.00;1.00;;;;;25.29;44.44;101140.38;5086236;27;45560;-76
2022/06/07 13:53:26;;;;;;;;;0.67;0.67;;;;;25.16;44.89;101121.88;5091275;27;45425;-75
2022/06/07 13:56:04;;;;;;;;;2.00;2.00;;;;;25.13;45.00;101123.06;5091258;27;47314;-76
2022/06/07 13:58:31;;;;;;;;;0.67;0.67;;;;;25.12;44.98;101115.09;5086217;27;45586;-78
2022/06/07 14:01:02;;;;;;;;;2.00;2.00;;;;;25.10;45.64;101126.13;5084643;27;45453;-78
2022/06/07 14:03:39;;;;;;;;;1.00;1.00;;;;;25.09;45.45;101127.13;5085925;27;45453;-76
2022/06/07 14:06:17;;;;;;;;;0.67;0.67;;;;;25.09;45.51;101129.84;5084056;27;45488;-75
2022/06/07 14:08:43;;;;;;;;;0.67;0.67;;;;;25.10;45.52;101136.16;5080424;27;45327;-76
2022/06/07 14:11:08;;;;;;;;;0.00;0.00;;;;;25.15;45.67;101128.34;5087552;27;45457;-76
2022/06/07 14:13:33;;;;;;;;;1.33;1.00;;;;;25.19;45.14;101131.56;5091716;27;47801;-76
2022/06/07 14:15:59;;;;;;;;;1.00;1.00;;;;;25.22;45.37;101136.66;5090441;27;45383;-77
2022/06/07 14:18:24;;;;;;;;;3.00;1.00;;;;;25.22;45.77;101123.06;5086493;27;45505;-77
2022/06/07 14:20:50;;;;;;;;;1.00;1.00;;;;;25.22;45.37;101131.22;5081281;27;45968;-79
2022/06/07 14:23:18;;;;;;;;;1.67;1.67;;;;;25.18;45.36;101124.44;5087721;27;45451;-79
2022/06/07 14:25:43;;;;;;;;;0.33;0.33;;;;;25.10;44.99;101126.13;5085005;27;47105;-79
2022/06/07 14:28:21;;;;;;;;;2.00;2.00;;;;;25.05;45.45;101123.06;5089850;27;45426;-78
2022/06/07 14:30:49;;;;;;;;;0.67;0.67;;;;;24.99;45.41;101121.91;5081583;27;45470;-79
2022/06/07 14:33:16;;;;;;;;;1.00;1.00;;;;;24.94;45.55;101124.28;5083266;27;45489;-79
2022/06/07 14:35:42;;;;;;;;;3.00;1.00;;;;;24.94;46.03;101120.69;5079287;27;45935;-79
2022/06/07 14:38:12;;;;;;;;;0.00;0.00;;;;;24.91;45.66;101130.03;5085589;27;45351;-74
2022/06/07 14:40:41;;;;;;;;;1.67;1.67;;;;;24.89;46.08;101118.47;5091077;27;45484;-75
2022/06/07 14:43:08;;;;;;;;;1.00;1.00;;;;;24.91;45.85;101113.75;5082982;27;45560;-74
2022/06/07 14:45:41;;;;;;;;;1.00;1.00;;;;;24.91;46.08;101119.16;5082684;27;45695;-75
2022/06/07 14:48:09;;;;;;;;;1.00;1.00;;;;;24.90;46.19;101101.19;5083585;27;45413;-77
2022/06/07 14:50:35;;;;;;;;;0.00;0.00;;;;;24.93;46.20;101100.84;5089005;27;45568;-80
2022/06/07 14:53:01;;;;;;;;;2.33;1.00;;;;;24.95;46.19;101098.81;5085966;27;45808;-76
2022/06/07 14:55:27;;;;;;;;;3.33;1.00;;;;;24.94;46.13;101094.41;5089620;27;45632;-73
2022/06/07 14:57:53;;;;;;;;;1.00;1.00;;;;;24.95;46.16;101098.81;5087599;27;45556;-75
2022/06/07 15:00:22;;;;;;;;;0.67;0.67;;;;;24.94;46.19;101097.13;5101793;27;45406;-75
2022/06/07 15:02:54;;;;;;;;;0.67;0.67;;;;;24.93;46.37;101086.44;5081000;27;45414;-73
2022/06/07 15:05:25;;;;;;;;;0.00;0.00;;;;;24.96;45.99;101103.22;5086714;27;47204;-74
2022/06/07 15:07:55;;;;;;;;;2.00;2.00;;;;;24.98;46.21;101105.78;5078352;27;45760;-75
2022/06/07 15:10:24;;;;;;;;;1.00;1.00;;;;;25.01;46.15;101099.97;5093671;27;45086;-75
2022/06/07 15:12:49;;;;;;;;;2.00;1.00;;;;;25.02;46.24;101093.56;5088670;27;45432;-75
2022/06/07 15:15:15;;;;;;;;;1.00;1.00;;;;;25.07;46.30;101095.75;5087662;27;46003;-75
2022/06/07 15:17:45;;;;;;;;;1.00;1.00;;;;;25.09;46.29;101091.00;5087077;27;45530;-76
2022/06/07 15:20:38;;;;;;;;;0.33;0.33;;;;;25.10;46.27;101079.94;5080749;27;45318;-79
2022/06/07 15:23:24;;;;;;;;;1.00;1.00;;;;;25.10;46.22;101079.13;5114837;27;45501;-74
2022/06/07 15:25:52;;;;;;;;;1.00;1.00;;;;;25.07;45.93;101074.88;5082182;27;47362;-73
2022/06/07 15:28:18;;;;;;;;;1.33;1.33;;;;;25.08;46.35;101064.84;5083603;27;45525;-76
2022/06/07 15:30:45;;;;;;;;;2.00;0.00;;;;;25.08;46.31;101065.69;5088361;27;45680;-75
2022/06/07 15:33:11;;;;;;;;;1.00;1.00;;;;;25.13;46.27;101062.47;5081867;27;47165;-77
2022/06/07 15:35:39;;;;;;;;;2.00;2.00;;;;;25.38;45.64;101063.28;5080735;27;47462;-77
2022/06/07 15:38:12;;;;;;;;;1.00;1.00;;;;;25.68;45.44;101070.00;5086021;27;45794;-78
2022/06/07 15:40:38;;;;;;;;;0.33;0.33;;;;;25.94;44.96;101074.34;5075318;27;45725;-77
2022/06/07 15:43:03;;;;;;;;;0.00;0.00;;;;;26.19;44.77;101061.44;5077988;27;47462;-76
2022/06/07 15:45:33;;;;;;;;;0.00;0.00;;;;;26.42;44.35;101069.69;5075986;27;47030;-75
2022/06/07 15:48:20;;;;;;;;;0.00;0.00;;;;;26.62;44.27;101063.75;5076824;27;45555;-75
2022/06/07 15:50:49;;;;;;;;;1.00;1.00;;;;;26.79;43.50;101045.41;5075887;27;45701;-76
2022/06/07 15:53:17;;;;;;;;;2.00;2.00;;;;;26.93;43.56;101048.38;5076425;27;45317;-82
2022/06/07 15:55:43;;;;;;;;;1.00;1.00;;;;;27.05;43.47;101048.81;5076188;27;46255;-78
2022/06/07 16:00:52;;;;;;;;;1.00;0.33;;;;;27.26;42.44;101042.59;5077298;27;45489;-78
2022/06/07 16:03:19;;;;;;;;;1.00;1.00;;;;;27.31;42.46;101037.47;5077317;27;45402;-78
2022/06/07 16:05:44;;;;;;;;;1.00;0.00;;;;;27.36;42.55;101047.78;5075341;27;46549;-77
2022/06/07 16:08:12;;;;;;;;;0.00;0.00;;;;;27.38;42.30;101051.16;5074692;27;45436;-77
2022/06/07 16:10:38;;;;;;;;;1.00;1.00;;;;;27.38;42.54;101048.44;5075197;27;45780;-78
2022/06/07 16:13:04;;;;;;;;;1.00;1.00;;;;;27.44;42.17;101046.84;5077862;27;45521;-78
2022/06/07 16:15:31;;;;;;;;;0.67;0.67;;;;;27.46;42.23;101045.63;5094064;27;47230;-80
2022/06/07 16:17:58;;;;;;;;;1.00;1.00;;;;;27.49;41.76;101045.25;5085259;27;45783;-75
2022/06/07 16:20:23;;;;;;;;;1.00;1.00;;;;;27.52;42.02;101054.94;5081249;27;45459;-74
2022/06/07 16:22:49;;;;;;;;;0.00;0.00;;;;;27.55;41.62;101051.00;5078800;27;45504;-74
2022/06/07 16:25:15;;;;;;;;;1.00;1.00;;;;;27.55;41.71;101060.00;5086675;27;45576;-77
2022/06/07 16:33:21;;;;;;;;;2.67;1.00;;;;;27.43;39.30;101056.06;5080763;27;45523;-77
2022/06/07 16:35:56;;;;;;;;;1.00;1.00;;;;;27.31;39.52;101053.81;5081982;27;46020;-78
2022/06/07 16:38:26;;;;;;;;;2.00;2.00;;;;;27.21;39.32;101064.09;5078586;27;48423;-78
2022/06/07 16:40:52;;;;;;;;;2.33;1.67;;;;;27.18;39.26;101056.34;5082013;27;45369;-80
2022/06/07 16:46:04;;;;;;;;;0.67;0.67;;;;;27.15;38.75;101063.00;5086916;27;45492;-82
2022/06/07 16:48:31;;;;;;;;;1.00;1.00;;;;;27.14;38.96;101057.72;5090718;27;45719;-83
2022/06/07 16:50:56;;;;;;;;;4.00;0.33;;;;;27.09;38.21;101050.09;5076979;27;47607;-81
2022/06/07 16:53:22;;;;;;;;;0.33;0.33;;;;;27.11;38.92;101056.22;5073670;27;45616;-77
2022/06/07 16:55:47;;;;;;;;;1.00;1.00;;;;;27.14;38.32;101058.56;5076755;27;46277;-78
2022/06/07 16:58:13;;;;;;;;;1.00;1.00;;;;;27.18;37.82;101059.06;5080215;27;45767;-79
2022/06/07 17:00:39;;;;;;;;;1.33;1.33;;;;;27.21;38.29;101053.22;5082107;27;45568;-80
2022/06/07 17:03:05;;;;;;;;;0.00;0.00;;;;;27.25;37.70;101057.25;5077058;27;45898;-79
2022/06/07 17:05:34;;;;;;;;;1.33;1.33;;;;;27.29;37.73;101047.69;5079430;27;45916;-80
2022/06/07 17:08:00;;;;;;;;;1.00;1.00;;;;;27.30;37.93;101046.66;5078694;27;47079;-80
2022/06/07 17:10:25;;;;;;;;;0.00;0.00;;;;;27.34;37.50;101050.69;5075335;27;46070;-79
2022/06/07 17:12:51;;;;;;;;;0.67;0.67;;;;;27.35;37.69;101037.94;5076584;27;45429;-82
2022/06/07 17:15:16;;;;;;;;;0.00;0.00;;;;;27.31;38.06;101044.78;5082017;27;45437;-79
2022/06/07 17:17:42;;;;;;;;;1.33;1.00;;;;;27.27;38.33;101040.72;5085244;27;45668;-81
2022/06/07 17:20:08;;;;;;;;;2.00;0.67;;;;;27.23;38.93;101046.53;5081356;27;45441;-80
2022/06/07 17:22:33;;;;;;;;;3.00;1.00;;;;;27.26;38.34;101049.94;5076494;27;47502;-81
2022/06/07 17:24:59;;;;;;;;;1.33;1.33;;;;;27.27;37.76;101043.47;5078647;27;46278;-81
2022/06/07 17:27:24;;;;;;;;;3.00;0.00;;;;;27.26;37.38;101042.59;5082758;27;45394;-81
2022/06/07 17:29:50;;;;;;;;;0.67;0.67;;;;;27.27;37.33;101040.72;5077068;27;45435;-81
2022/06/07 17:32:15;;;;;;;;;1.00;1.00;;;;;27.32;37.70;101052.78;5073508;27;45576;-81
2022/06/07 17:34:40;;;;;;;;;1.33;0.33;;;;;27.35;37.02;101040.66;5087512;27;46505;-81
2022/06/07 17:37:06;;;;;;;;;0.00;0.00;;;;;27.38;37.51;101051.16;5076513;27;45471;-80
2022/06/07 17:39:31;;;;;;;;;1.00;1.00;;;;;27.41;36.79;101039.03;5082179;27;45735;-80
2022/06/07 17:41:57;;;;;;;;;0.67;0.67;;;;;27.41;36.83;101039.88;5087138;27;45434;-80
2022/06/07 17:44:22;;;;;;;;;2.33;0.00;;;;;27.44;36.86;101039.53;5082577;27;50279;-80
2022/06/07 17:46:48;;;;;;;;;0.00;0.00;;;;;27.44;37.25;101035.94;5086327;27;45515;-81
2022/06/07 17:49:14;;;;;;;;;1.00;1.00;;;;;27.46;37.34;101032.00;5085710;27;45348;-80
2022/06/07 17:51:39;;;;;;;;;2.67;1.00;;;;;27.44;37.18;101041.41;5082541;27;46256;-81
2022/06/07 17:54:05;;;;;;;;;0.67;0.67;;;;;27.39;36.87;101036.53;5080596;27;46826;-80
2022/06/07 17:56:30;;;;;;;;;1.00;1.00;;;;;27.39;37.35;101043.84;5084321;27;45659;-80
2022/06/07 17:58:57;;;;;;;;;1.00;1.00;;;;;27.39;36.58;101035.66;5083481;27;45535;-79
2022/06/07 18:01:23;;;;;;;;;1.00;1.00;;;;;27.40;37.16;101037.34;5088569;27;45508;-80
2022/06/07 18:03:48;;;;;;;;;0.33;0.33;;;;;27.40;37.36;101037.34;5085029;27;46737;-79
2022/06/07 18:06:14;;;;;;;;;1.33;0.00;;;;;27.38;36.60;101033.97;5078208;27;45670;-79
2022/06/07 18:08:39;;;;;;;;;2.00;0.33;;;;;27.32;37.42;101033.69;5082242;27;45500;-79
2022/06/07 18:11:06;;;;;;;;;1.00;1.00;;;;;27.26;37.15;101033.59;5080362;27;45560;-79
2022/06/07 18:13:31;;;;;;;;;2.00;2.00;;;;;27.22;37.31;101028.50;5078429;27;46387;-79
2022/06/07 18:15:59;;;;;;;;;1.00;1.00;;;;;27.21;37.04;101031.41;5092504;27;45553;-75
2022/06/07 18:18:26;;;;;;;;;2.00;0.33;;;;;27.18;36.95;101023.63;5074715;27;45461;-76
2022/06/07 18:20:53;;;;;;;;;1.33;1.00;;;;;27.11;36.98;101020.81;5082416;27;45708;-77
2022/06/07 18:23:23;;;;;;;;;1.67;1.67;;;;;27.04;37.26;101017.97;5089553;27;47904;-77
2022/06/07 18:25:48;;;;;;;;;2.00;1.00;;;;;27.03;37.47;101016.28;5089537;27;45701;-77
2022/06/07 18:28:14;;;;;;;;;1.00;1.00;;;;;27.06;37.70;101018.63;5087458;27;45516;-78
2022/06/07 18:30:40;;;;;;;;;1.00;1.00;;;;;27.07;37.37;101012.16;5088168;27;45506;-75
2022/06/07 18:33:07;;;;;;;;;1.00;1.00;;;;;27.12;38.16;101021.63;5086185;27;46746;-73
2022/06/07 18:35:38;;;;;;;;;1.00;1.00;;;;;27.12;38.01;101016.19;5089508;27;45827;-76
2022/06/07 18:38:04;;;;;;;;;0.50;0.50;;;;;27.10;38.12;101014.50;5090671;27;45438;-74